Time;durP1;ratioP1;P1;durP2;ratioP2;P2;SDS_P1;SDS_P2;PMS_P1;PMS_P2;Temp;Humidity;BMP_temperature;BMP_pressure;BME280_temperature;BME280_humidity;BME280_pressure;Samples;Min_cycle;Max_cycle;Signal;HPM_P1;HPM_P2
2022/04/15 00:03:08;;;;;;;15.25;10.70;;;;;;;6.53;83.43;100991.91;1744044;82;21221;-59
2022/04/15 00:06:14;;;;;;;16.52;11.28;;;;;;;6.49;83.47;100997.23;1744053;82;21221;-59
2022/04/15 00:09:19;;;;;;;14.65;11.48;;;;;;;6.46;83.40;101007.52;1744128;82;21221;-58
2022/04/15 00:12:30;;;;;;;15.30;11.03;;;;;;;6.41;83.31;101004.33;1744178;82;21244;-59
2022/04/15 00:15:34;;;;;;;13.72;10.00;;;;;;;6.36;83.34;101003.90;1737377;81;21253;-58
2022/04/15 00:18:41;;;;;;;14.90;10.80;;;;;;;6.33;83.45;101002.81;1726960;82;21210;-58
2022/04/15 00:21:48;;;;;;;14.78;10.65;;;;;;;6.30;83.43;101005.77;1725554;83;21184;-59
2022/04/15 00:24:56;;;;;;;18.55;14.18;;;;;;;6.22;83.35;101003.72;1725596;83;21245;-58
2022/04/15 00:28:01;;;;;;;15.40;10.85;;;;;;;6.19;83.50;101000.40;1727086;81;21209;-58
2022/04/15 00:31:08;;;;;;;15.48;10.48;;;;;;;6.15;83.56;101004.39;1727686;81;21273;-60
2022/04/15 00:34:15;;;;;;;14.68;9.03;;;;;;;6.07;83.37;101006.42;1707775;82;21234;-59
2022/04/15 00:37:20;;;;;;;13.70;9.78;;;;;;;6.03;83.61;101010.37;1726273;81;21181;-59
2022/04/15 00:40:27;;;;;;;21.68;12.75;;;;;;;5.99;83.76;101007.58;1726714;81;21250;-58
2022/04/15 00:43:33;;;;;;;27.73;15.50;;;;;;;5.98;83.99;101016.70;1707642;82;21225;-59
2022/04/15 00:46:38;;;;;;;32.88;19.27;;;;;;;5.98;84.24;101012.63;1725505;83;21328;-58
2022/04/15 00:49:45;;;;;;;33.45;17.07;;;;;;;5.95;84.25;101002.89;1726301;81;21249;-58
2022/04/15 00:52:53;;;;;;;28.85;17.05;;;;;;;5.90;84.23;100998.34;1725510;83;21258;-58
2022/04/15 00:56:01;;;;;;;19.55;11.08;;;;;;;5.85;84.32;100998.39;1728337;81;21190;-58
2022/04/15 00:59:08;;;;;;;16.93;10.45;;;;;;;5.83;84.43;101009.87;1725535;83;21206;-58
2022/04/15 01:02:15;;;;;;;13.62;9.08;;;;;;;5.79;84.52;101006.52;1726456;81;21277;-59
2022/04/15 01:05:23;;;;;;;13.68;8.15;;;;;;;5.74;84.45;101009.27;1728553;81;21371;-59
2022/04/15 01:08:29;;;;;;;12.75;7.33;;;;;;;5.70;84.54;101011.86;1726379;81;21277;-59
2022/04/15 01:11:36;;;;;;;13.48;7.62;;;;;;;5.66;84.87;101011.25;1726511;81;21253;-59
2022/04/15 01:14:44;;;;;;;10.23;7.97;;;;;;;5.65;85.12;101005.47;1725471;83;21213;-58
2022/04/15 01:17:50;;;;;;;10.72;7.95;;;;;;;5.64;85.28;101010.55;1708003;82;21356;-58
2022/04/15 01:20:57;;;;;;;14.18;7.95;;;;;;;5.62;85.30;101003.50;1725791;81;21257;-60
2022/04/15 01:24:03;;;;;;;10.38;7.65;;;;;;;5.60;85.34;101010.91;1727452;81;21577;-59
2022/04/15 01:27:09;;;;;;;10.82;7.25;;;;;;;5.56;85.33;101008.09;1708397;82;21445;-59
2022/04/15 01:30:21;;;;;;;9.75;6.90;;;;;;;5.53;85.37;101007.00;1708856;82;21949;-58
2022/04/15 01:33:27;;;;;;;14.55;8.63;;;;;;;5.49;85.29;101007.74;1707409;82;21336;-58
2022/04/15 01:36:33;;;;;;;15.90;11.57;;;;;;;5.46;85.49;101000.34;1726165;82;21241;-59
2022/04/15 01:39:41;;;;;;;21.17;11.55;;;;;;;5.43;85.52;100997.89;1727414;81;21225;-59
2022/04/15 01:42:47;;;;;;;24.18;12.10;;;;;;;5.40;85.52;100999.02;1725475;83;21170;-58
2022/04/15 01:45:53;;;;;;;24.55;12.68;;;;;;;5.39;85.55;101007.30;1725450;83;21257;-59
2022/04/15 01:49:01;;;;;;;26.15;12.58;;;;;;;5.35;85.38;101008.03;1725515;83;21198;-58
2022/04/15 01:52:06;;;;;;;26.50;13.30;;;;;;;5.31;85.28;101009.78;1725831;82;21241;-58
2022/04/15 01:55:13;;;;;;;23.07;12.37;;;;;;;5.24;84.96;101016.20;1725964;81;21214;-59
2022/04/15 01:58:18;;;;;;;25.35;12.25;;;;;;;5.20;85.07;101013.88;1708706;82;21265;-59
2022/04/15 02:01:24;;;;;;;24.18;11.53;;;;;;;5.17;85.07;101014.97;1726661;81;21198;-59
2022/04/15 02:04:36;;;;;;;20.35;12.33;;;;;;;5.12;84.84;101015.00;1724176;83;21910;-59
2022/04/15 02:07:42;;;;;;;13.83;9.70;;;;;;;5.09;85.03;101022.88;1726530;81;21237;-59
2022/04/15 02:10:48;;;;;;;19.50;10.60;;;;;;;5.09;85.30;101020.68;1725497;83;21234;-58
2022/04/15 02:13:55;;;;;;;19.95;10.25;;;;;;;5.08;85.17;101027.08;1725549;83;21308;-61
2022/04/15 02:17:01;;;;;;;18.52;10.05;;;;;;;5.06;85.12;101034.50;1725405;83;21256;-58
2022/04/15 02:20:11;;;;;;;17.90;9.80;;;;;;;5.03;85.14;101025.22;1727854;82;21820;-59
2022/04/15 02:23:18;;;;;;;17.02;10.30;;;;;;;4.99;85.00;101016.98;1754869;81;21240;-59
2022/04/15 02:26:25;;;;;;;17.65;9.75;;;;;;;4.94;84.87;101029.57;1755024;82;21177;-60
2022/04/15 02:29:32;;;;;;;20.02;10.68;;;;;;;4.90;84.92;101028.59;1754995;82;21338;-60
2022/04/15 02:32:38;;;;;;;15.65;9.10;;;;;;;4.88;85.00;101031.91;1754915;82;21224;-60
2022/04/15 02:35:43;;;;;;;16.77;9.60;;;;;;;4.86;85.04;101029.81;1754865;82;21197;-58
2022/04/15 02:38:49;;;;;;;16.32;8.83;;;;;;;4.84;85.00;101030.41;1727507;82;21712;-58
2022/04/15 02:41:56;;;;;;;15.95;10.10;;;;;;;4.83;84.97;101034.13;1754902;81;21280;-58
2022/04/15 02:45:01;;;;;;;15.85;9.38;;;;;;;4.80;84.79;101030.31;1754995;82;21216;-59
2022/04/15 02:48:07;;;;;;;16.55;9.23;;;;;;;4.72;84.42;101031.41;1754851;82;21744;-59
2022/04/15 02:51:17;;;;;;;18.02;10.20;;;;;;;4.69;84.52;101043.37;1754848;82;21235;-59
2022/04/15 02:54:22;;;;;;;15.32;10.13;;;;;;;4.68;84.61;101042.98;1755000;82;21274;-59
2022/04/15 02:57:28;;;;;;;20.97;12.73;;;;;;;4.67;84.75;101040.41;1754958;82;21204;-58
2022/04/15 03:00:34;;;;;;;37.55;21.45;;;;;;;4.68;84.84;101039.44;1755076;80;21342;-59
2022/04/15 03:03:40;;;;;;;20.45;12.80;;;;;;;4.67;84.91;101042.62;1754898;82;21232;-58
2022/04/15 03:06:46;;;;;;;19.82;11.25;;;;;;;4.68;84.93;101042.16;1754911;82;21184;-58
2022/04/15 03:09:53;;;;;;;22.10;13.83;;;;;;;4.68;84.88;101042.16;1754953;82;21231;-58
2022/04/15 03:12:58;;;;;;;18.57;9.25;;;;;;;4.67;84.75;101044.47;1754313;82;21236;-59
2022/04/15 03:16:05;;;;;;;11.80;7.80;;;;;;;4.65;84.59;101039.69;1754525;82;21256;-58
2022/04/15 03:19:12;;;;;;;13.38;8.43;;;;;;;4.65;84.74;101051.38;1741669;81;21217;-58
2022/04/15 03:22:17;;;;;;;22.02;10.90;;;;;;;4.61;84.59;101045.33;1724970;83;21276;-59
2022/04/15 03:25:25;;;;;;;15.18;8.53;;;;;;;4.59;84.51;101045.96;1725713;81;21277;-59
2022/04/15 03:28:32;;;;;;;22.30;11.00;;;;;;;4.61;84.95;101046.68;1728346;82;21774;-59
2022/04/15 03:31:37;;;;;;;22.75;11.97;;;;;;;4.66;85.10;101046.83;1726300;81;21218;-59
2022/04/15 03:34:45;;;;;;;34.60;15.32;;;;;;;4.70;85.21;101046.94;1725640;82;21284;-59
2022/04/15 03:37:54;;;;;;;41.42;18.92;;;;;;;4.74;85.30;101048.44;1724443;83;21309;-59
2022/04/15 03:41:02;;;;;;;22.13;12.10;;;;;;;4.79;85.33;101047.06;1724776;81;21222;-59
2022/04/15 03:44:10;;;;;;;16.40;9.80;;;;;;;4.84;85.34;101049.40;1724539;83;22075;-58
2022/04/15 03:47:16;;;;;;;13.30;8.15;;;;;;;4.87;85.33;101046.47;1724838;83;21238;-60
2022/04/15 03:50:24;;;;;;;13.35;7.75;;;;;;;4.92;85.36;101047.81;1724965;83;21210;-59
2022/04/15 03:53:33;;;;;;;25.12;17.37;;;;;;;4.98;85.48;101051.89;1697566;84;21181;-59
2022/04/15 03:56:41;;;;;;;15.98;9.03;;;;;;;5.06;85.63;101058.92;1697499;84;21228;-58
2022/04/15 03:59:48;;;;;;;13.80;8.48;;;;;;;5.14;85.75;101051.02;1697491;84;21574;-59
2022/04/15 04:02:59;;;;;;;15.05;8.60;;;;;;;5.21;85.78;101056.30;1698144;83;21263;-60
2022/04/15 04:06:06;;;;;;;17.82;10.30;;;;;;;5.29;85.76;101051.98;1697655;84;21196;-59
2022/04/15 04:09:13;;;;;;;51.85;22.07;;;;;;;5.37;85.87;101061.72;1698342;83;21232;-60
2022/04/15 04:12:20;;;;;;;115.28;48.95;;;;;;;5.45;85.92;101056.52;1698034;83;21239;-58
2022/04/15 04:15:26;;;;;;;143.37;52.05;;;;;;;5.54;85.97;101060.30;1699941;83;21270;-60
2022/04/15 04:18:31;;;;;;;151.78;60.70;;;;;;;5.65;86.02;101065.70;1697510;84;21247;-60
2022/04/15 04:21:39;;;;;;;137.47;56.15;;;;;;;5.76;86.03;101068.38;1734433;80;21232;-61
2022/04/15 04:24:45;;;;;;;186.22;96.65;;;;;;;5.86;86.05;101068.89;1741377;81;21236;-61
2022/04/15 04:27:52;;;;;;;273.55;176.18;;;;;;;5.98;86.01;101069.20;1740920;82;21220;-59
2022/04/15 04:30:58;;;;;;;62.62;36.55;;;;;;;6.08;86.03;101070.64;1741249;82;21268;-60
2022/04/15 04:34:05;;;;;;;39.95;21.37;;;;;;;6.20;86.07;101068.22;1741153;81;21189;-60
2022/04/15 04:37:12;;;;;;;22.45;12.88;;;;;;;6.32;86.02;101072.62;1741215;81;21192;-59
2022/04/15 04:40:19;;;;;;;17.48;11.10;;;;;;;6.45;85.92;101071.06;1740580;82;21254;-59
2022/04/15 04:43:24;;;;;;;20.15;11.60;;;;;;;6.55;85.82;101063.84;1740486;82;21230;-60
2022/04/15 04:46:29;;;;;;;18.75;9.88;;;;;;;6.68;85.75;101069.42;1740493;82;21194;-59
2022/04/15 04:49:35;;;;;;;48.38;36.03;;;;;;;6.80;85.62;101076.50;1740127;82;21202;-60
2022/04/15 04:52:46;;;;;;;24.40;15.13;;;;;;;6.92;85.45;101065.91;1757536;81;21277;-60
2022/04/15 04:55:52;;;;;;;17.65;10.45;;;;;;;7.04;85.27;101066.17;1765025;81;21210;-59
2022/04/15 04:58:58;;;;;;;13.00;8.45;;;;;;;7.17;85.11;101059.99;1770465;81;21311;-59
2022/04/15 05:02:05;;;;;;;110.70;77.32;;;;;;;7.31;84.95;101063.70;1770183;80;21353;-59
2022/04/15 05:05:10;;;;;;;38.95;26.73;;;;;;;7.46;84.80;101062.32;1723087;82;21224;-58
2022/04/15 05:08:15;;;;;;;20.25;13.90;;;;;;;7.61;84.54;101062.80;1743189;82;21212;-59
2022/04/15 05:11:22;;;;;;;15.63;9.75;;;;;;;7.75;84.25;101060.14;1740256;82;21209;-63
2022/04/15 05:14:29;;;;;;;19.35;9.23;;;;;;;7.90;83.92;101063.67;1704525;84;21749;-61
2022/04/15 05:17:35;;;;;;;19.77;9.45;;;;;;;8.05;83.55;101066.35;1703635;84;21195;-59
2022/04/15 05:20:42;;;;;;;10.63;7.03;;;;;;;8.18;83.18;101068.27;1703695;84;21176;-59
2022/04/15 05:23:48;;;;;;;51.23;34.45;;;;;;;8.33;82.77;101068.23;1720745;83;21207;-61
2022/04/15 05:26:54;;;;;;;12.03;8.95;;;;;;;8.46;82.19;101070.66;1720253;83;21191;-59
2022/04/15 05:30:01;;;;;;;11.97;7.42;;;;;;;8.59;81.41;101067.97;1766209;81;21774;-59
2022/04/15 05:33:06;;;;;;;10.72;6.92;;;;;;;8.71;80.70;101070.03;1746499;81;22053;-59
2022/04/15 05:36:13;;;;;;;13.18;7.62;;;;;;;8.83;79.96;101075.70;1753048;81;21171;-59
2022/04/15 05:39:20;;;;;;;17.17;7.17;;;;;;;8.96;79.40;101069.38;1753513;81;21218;-60
2022/04/15 05:42:26;;;;;;;16.00;7.83;;;;;;;9.08;79.01;101066.31;1758141;80;21214;-58
2022/04/15 05:45:32;;;;;;;9.70;6.80;;;;;;;9.24;78.32;101073.02;1778832;80;21223;-59
2022/04/15 05:48:41;;;;;;;9.75;6.10;;;;;;;9.37;77.80;101069.45;1789248;80;21296;-59
2022/04/15 05:51:50;;;;;;;12.75;6.40;;;;;;;9.50;77.24;101068.59;1788636;80;21208;-59
2022/04/15 05:54:57;;;;;;;13.03;6.55;;;;;;;9.64;76.68;101065.34;1787906;80;22009;-58
2022/04/15 05:58:03;;;;;;;12.53;6.90;;;;;;;9.77;76.32;101066.68;1765894;80;21220;-58
2022/04/15 06:01:10;;;;;;;12.63;7.25;;;;;;;9.90;76.04;101063.07;1718431;82;21192;-59
2022/04/15 06:04:17;;;;;;;11.65;6.97;;;;;;;10.03;75.86;101062.19;1696096;83;21611;-60
2022/04/15 06:07:23;;;;;;;9.93;5.35;;;;;;;10.15;75.60;101059.59;1782198;80;21353;-60
2022/04/15 06:10:30;;;;;;;10.32;5.47;;;;;;;10.27;75.07;101058.35;1760024;80;21160;-59
2022/04/15 06:13:37;;;;;;;9.50;5.17;;;;;;;10.38;74.62;101062.71;1789680;80;21207;-59
2022/04/15 06:16:45;;;;;;;9.63;5.37;;;;;;;10.51;74.10;101058.53;1789467;80;21163;-59
2022/04/15 06:19:54;;;;;;;12.25;5.92;;;;;;;10.64;73.67;101065.48;1788458;80;21184;-59
2022/04/15 06:23:00;;;;;;;11.08;5.40;;;;;;;10.75;72.71;101063.33;1769227;79;21195;-58
2022/04/15 06:26:09;;;;;;;6.05;3.90;;;;;;;10.84;72.25;101062.88;1790597;79;21201;-59
2022/04/15 06:29:15;;;;;;;10.03;4.22;;;;;;;10.96;71.84;101055.61;1783629;79;21218;-61
2022/04/15 06:32:21;;;;;;;6.50;3.80;;;;;;;11.10;70.78;101056.91;1774896;80;21788;-60
2022/04/15 06:35:29;;;;;;;5.62;3.83;;;;;;;11.24;70.06;101063.97;1788134;80;21749;-59
2022/04/15 06:38:35;;;;;;;6.35;4.60;;;;;;;11.37;69.08;101059.44;1800871;79;21385;-59
2022/04/15 06:41:44;;;;;;;8.80;4.28;;;;;;;11.49;68.45;101051.25;1790871;79;21711;-58
2022/04/15 06:44:49;;;;;;;7.70;4.10;;;;;;;11.59;67.46;101051.98;1790188;79;21211;-58
2022/04/15 06:47:55;;;;;;;8.38;4.85;;;;;;;11.69;66.79;101051.34;1812008;79;21184;-57
2022/04/15 06:51:02;;;;;;;8.48;4.62;;;;;;;11.80;66.09;101055.15;1786723;80;21209;-61
2022/04/15 06:54:15;;;;;;;11.35;6.97;;;;;;;11.93;65.63;101062.39;1810885;79;21263;-59
2022/04/15 06:57:43;;;;;;;8.23;4.75;;;;;;;12.04;64.62;101057.95;1780266;80;21701;-61
2022/04/15 07:00:53;;;;;;;8.78;4.37;;;;;;;12.13;63.56;101058.30;1792627;79;21547;-61
2022/04/15 07:03:59;;;;;;;5.25;3.40;;;;;;;12.21;63.17;101054.20;1784391;80;21249;-60
2022/04/15 07:07:06;;;;;;;7.55;3.80;;;;;;;12.33;62.91;101056.97;1784315;80;21221;-59
2022/04/15 07:10:15;;;;;;;7.47;3.75;;;;;;;12.45;62.68;101055.59;1784912;80;21221;-61
2022/04/15 07:13:21;;;;;;;5.97;3.15;;;;;;;12.57;62.52;101054.23;1784799;80;21233;-60
2022/04/15 07:16:32;;;;;;;6.03;3.52;;;;;;;12.66;62.41;101054.56;1794171;79;21205;-60
2022/04/15 07:19:42;;;;;;;5.92;3.35;;;;;;;12.77;62.31;101055.58;1765120;80;21262;-60
2022/04/15 07:22:53;;;;;;;6.62;2.70;;;;;;;12.89;62.08;101058.84;1747313;81;21731;-59
2022/04/15 07:25:59;;;;;;;3.22;2.47;;;;;;;12.98;60.55;101050.41;1744976;81;21206;-59
2022/04/15 07:29:05;;;;;;;3.52;2.10;;;;;;;13.09;58.98;101049.20;1743730;81;21229;-59
2022/04/15 07:32:21;;;;;;;3.35;2.25;;;;;;;13.19;57.77;101055.37;1773511;80;21186;-61
2022/04/15 07:35:36;;;;;;;3.75;2.02;;;;;;;13.26;54.37;101054.48;1747782;81;21224;-60
2022/04/15 07:38:59;;;;;;;2.92;2.20;;;;;;;13.31;53.59;101053.94;1773238;80;21229;-59
2022/04/15 07:42:04;;;;;;;4.90;2.67;;;;;;;13.37;54.01;101053.23;1748500;81;21196;-58
2022/04/15 07:45:17;;;;;;;4.25;2.30;;;;;;;13.41;54.41;101057.35;1785490;79;21735;-58
2022/04/15 07:48:27;;;;;;;4.42;2.12;;;;;;;13.48;54.26;101053.70;1789892;79;21714;-59
2022/04/15 07:51:33;;;;;;;3.98;1.90;;;;;;;13.59;53.99;101057.11;1780843;79;21930;-58
2022/04/15 07:54:42;;;;;;;3.60;2.00;;;;;;;13.66;52.99;101060.84;1794005;79;21228;-57
2022/04/15 07:58:00;;;;;;;2.90;2.00;;;;;;;13.71;53.73;101050.16;1759964;80;21307;-59
2022/04/15 08:01:21;;;;;;;3.52;2.15;;;;;;;13.77;53.64;101057.69;1748016;81;21253;-61
2022/04/15 08:04:27;;;;;;;3.12;2.10;;;;;;;13.89;53.75;101048.01;1755281;81;21805;-62
2022/04/15 08:07:32;;;;;;;6.10;2.62;;;;;;;14.03;53.06;101048.61;1742809;81;21206;-61
2022/04/15 08:10:40;;;;;;;3.58;2.00;;;;;;;14.16;52.76;101049.70;1755357;81;21217;-61
2022/04/15 08:13:45;;;;;;;2.22;1.70;;;;;;;14.25;51.83;101043.66;1754657;81;21209;-60
2022/04/15 08:16:51;;;;;;;3.12;1.87;;;;;;;14.31;51.10;101038.80;1755262;80;21213;-63
2022/04/15 08:19:58;;;;;;;2.35;1.52;;;;;;;14.37;50.32;101036.67;1798038;79;21224;-61
2022/04/15 08:23:09;;;;;;;2.35;1.52;;;;;;;14.48;50.39;101044.50;1771267;81;21229;-62
2022/04/15 08:26:18;;;;;;;3.15;1.65;;;;;;;14.52;49.54;101034.84;1766401;79;21260;-61
2022/04/15 08:29:27;;;;;;;2.35;1.72;;;;;;;14.59;49.12;101037.17;1727559;81;22169;-61
2022/04/15 08:32:35;;;;;;;4.80;1.37;;;;;;;14.64;49.15;101033.34;1807544;79;21735;-61
2022/04/15 08:35:52;;;;;;;3.52;1.70;;;;;;;14.69;48.22;101033.64;1789142;80;21256;-60
2022/04/15 08:38:59;;;;;;;3.67;1.70;;;;;;;14.72;47.99;101025.00;1788862;80;21201;-60
2022/04/15 08:42:06;;;;;;;5.28;1.77;;;;;;;14.81;48.97;101026.11;1792368;79;21409;-61
2022/04/15 08:45:14;;;;;;;3.92;1.60;;;;;;;14.96;48.83;101022.00;1800448;79;22107;-60
2022/04/15 08:48:21;;;;;;;4.17;1.65;;;;;;;15.07;48.50;101024.80;1787082;78;21308;-56
2022/04/15 08:51:44;;;;;;;3.00;2.25;;;;;;;15.13;48.78;101015.80;1771936;80;21260;-57
2022/04/15 08:54:58;;;;;;;4.30;1.70;;;;;;;15.18;48.02;101021.06;1771377;78;21189;-55
2022/04/15 08:58:04;;;;;;;5.30;2.05;;;;;;;15.18;48.50;101014.16;1800146;78;22116;-56
2022/04/15 09:01:13;;;;;;;4.08;1.92;;;;;;;15.20;48.39;101010.70;1774644;80;21278;-56
2022/04/15 09:04:22;;;;;;;5.55;1.70;;;;;;;15.26;48.37;101004.42;1816741;79;21228;-56
2022/04/15 09:07:29;;;;;;;4.90;2.15;;;;;;;15.34;48.60;101007.08;1816440;79;21724;-57
2022/04/15 09:10:36;;;;;;;3.45;2.08;;;;;;;15.40;48.60;100999.44;1773724;80;21797;-57
2022/04/15 09:13:44;;;;;;;5.85;2.22;;;;;;;15.45;48.58;100986.44;1815298;79;21791;-56
2022/04/15 09:17:07;;;;;;;4.90;1.95;;;;;;;15.51;48.34;100996.70;1755014;80;21288;-56
2022/04/15 09:20:15;;;;;;;3.10;1.98;;;;;;;15.53;48.24;100987.72;1733703;81;21217;-56
2022/04/15 09:23:25;;;;;;;3.92;2.00;;;;;;;15.54;48.07;100986.69;1734462;81;21240;-56
2022/04/15 09:26:35;;;;;;;3.98;2.08;;;;;;;15.57;47.85;100977.47;1756504;81;21233;-57
2022/04/15 09:29:43;;;;;;;3.62;1.90;;;;;;;15.62;48.06;100977.75;1758632;80;21217;-56
2022/04/15 09:32:52;;;;;;;7.17;2.65;;;;;;;15.68;47.72;100968.69;1777191;78;21225;-56
2022/04/15 09:36:01;;;;;;;3.12;1.95;;;;;;;15.77;47.84;100976.34;1783912;78;21205;-55
2022/04/15 09:39:19;;;;;;;3.98;2.02;;;;;;;15.86;47.87;100973.78;1750776;80;21213;-56
2022/04/15 09:42:26;;;;;;;3.20;1.90;;;;;;;15.97;47.97;100977.41;1777701;80;21344;-55
2022/04/15 09:45:36;;;;;;;2.70;1.62;;;;;;;16.08;48.72;100971.36;1780885;78;21202;-56
2022/04/15 09:48:43;;;;;;;3.85;2.00;;;;;;;16.21;48.02;100970.98;1750523;81;21745;-56
2022/04/15 09:51:56;;;;;;;4.25;2.40;;;;;;;16.30;48.75;100964.25;1715743;82;21228;-57
2022/04/15 09:55:02;;;;;;;3.47;1.82;;;;;;;16.42;47.92;100975.63;1774414;81;21229;-57
2022/04/15 09:58:19;;;;;;;2.47;1.70;;;;;;;16.52;47.04;100975.33;1774004;81;21189;-59
2022/04/15 10:01:29;;;;;;;4.53;1.90;;;;;;;16.57;46.93;100964.53;1804603;78;21632;-61
2022/04/15 10:04:47;;;;;;;3.67;1.90;;;;;;;16.67;46.28;100972.78;1793952;79;21198;-58
2022/04/15 10:07:53;;;;;;;6.60;1.90;;;;;;;16.73;45.74;100951.79;1764809;80;21213;-58
2022/04/15 10:11:03;;;;;;;3.45;1.95;;;;;;;16.81;45.38;100951.64;1789602;80;21363;-58
2022/04/15 10:14:33;;;;;;;7.10;4.00;;;;;;;16.89;46.23;100948.69;1796090;78;21773;-58
2022/04/15 10:17:39;;;;;;;4.30;2.65;;;;;;;16.98;45.50;100950.25;1789471;80;21237;-58
2022/04/15 10:20:47;;;;;;;6.50;2.50;;;;;;;17.04;46.41;100944.77;1762540;80;21189;-58
2022/04/15 10:23:57;;;;;;;4.70;1.77;;;;;;;17.13;45.40;100935.75;1764971;80;21221;-58
2022/04/15 10:27:07;;;;;;;3.70;1.87;;;;;;;17.28;45.14;100943.40;1755733;79;21581;-57
2022/04/15 10:30:25;;;;;;;4.17;1.90;;;;;;;17.29;42.90;100945.09;1764437;80;21773;-58
2022/04/15 10:33:39;;;;;;;5.03;2.35;;;;;;;17.25;42.49;100936.34;1771572;80;21296;-58
2022/04/15 10:36:45;;;;;;;4.20;2.15;;;;;;;17.31;42.92;100932.77;1750584;80;21195;-58
2022/04/15 10:39:55;;;;;;;4.83;2.10;;;;;;;17.48;43.45;100929.13;1767192;80;21229;-58
2022/04/15 10:43:01;;;;;;;6.75;2.10;;;;;;;17.67;43.62;100920.04;1784782;80;21252;-58
2022/04/15 10:46:20;;;;;;;4.80;1.70;;;;;;;17.84;44.14;100916.67;1752785;80;21775;-57
2022/04/15 10:49:34;;;;;;;4.85;1.65;;;;;;;18.06;44.46;100917.90;1761917;80;21244;-57
2022/04/15 10:52:43;;;;;;;3.67;1.77;;;;;;;18.31;42.79;100912.91;1751052;80;21191;-58
2022/04/15 10:55:54;;;;;;;4.65;1.70;;;;;;;18.46;41.73;100908.55;1721819;81;21202;-58
2022/04/15 11:02:45;;;;;;;4.85;1.60;;;;;;;18.68;41.25;100901.72;1758843;80;21207;-58
2022/04/15 11:05:59;;;;;;;4.30;1.92;;;;;;;18.78;40.85;100891.02;1716916;82;21175;-59
2022/04/15 11:09:21;;;;;;;7.75;4.78;;;;;;;18.87;40.84;100883.63;1745695;80;21744;-57
2022/04/15 11:12:51;;;;;;;5.85;2.77;;;;;;;18.98;40.81;100880.18;1751016;82;21262;-58
2022/04/15 11:16:18;;;;;;;3.75;2.20;;;;;;;19.18;40.70;100884.28;1750627;81;21997;-58
2022/04/15 11:19:21;;;;;;;;;;;;;;;19.39;42.04;100879.00;1767673;80;21217;-55
2022/04/15 11:22:28;;;;;;;3.50;2.12;;;;;;;19.56;40.03;100878.27;1720779;80;20242;-57
2022/04/15 11:25:34;;;;;;;4.72;2.30;;;;;;;19.70;40.02;100878.50;1750130;80;21387;-59
2022/04/15 11:28:40;;;;;;;8.13;6.00;;;;;;;19.85;40.89;100875.42;1758240;80;21211;-58
2022/04/15 11:31:58;;;;;;;5.25;2.10;;;;;;;19.97;40.58;100870.83;1758677;80;21809;-58
2022/04/15 11:35:13;;;;;;;3.12;2.02;;;;;;;19.97;39.14;100863.88;1679602;84;21236;-58
2022/04/15 11:38:19;;;;;;;3.98;2.22;;;;;;;20.00;38.70;100864.29;1679384;84;21200;-58
2022/04/15 11:41:31;;;;;;;3.08;1.77;;;;;;;20.07;39.34;100861.47;1695366;84;21220;-56
2022/04/15 11:44:39;;;;;;;7.22;2.75;;;;;;;20.13;39.56;100860.02;1732085;81;21741;-55
2022/04/15 11:47:45;;;;;;;2.83;1.90;;;;;;;20.24;38.92;100850.12;1713501;82;21778;-54
2022/04/15 11:50:52;;;;;;;4.53;1.85;;;;;;;20.31;38.02;100852.31;1717325;82;21373;-55
2022/04/15 11:53:59;;;;;;;5.42;2.12;;;;;;;20.38;38.06;100847.53;1742563;82;21776;-54
2022/04/15 11:57:06;;;;;;;8.95;2.42;;;;;;;20.47;37.76;100837.83;1717370;82;21270;-55
2022/04/15 12:00:15;;;;;;;3.17;1.65;;;;;;;20.56;38.53;100841.48;1729144;82;21283;-57
2022/04/15 12:03:21;;;;;;;7.22;1.72;;;;;;;20.67;36.96;100827.34;1722674;82;21208;-58
2022/04/15 12:06:29;;;;;;;5.25;2.12;;;;;;;20.76;36.87;100825.94;1705802;82;21173;-58
2022/04/15 12:09:37;;;;;;;4.35;1.72;;;;;;;20.74;36.09;100822.53;1730706;81;21245;-58
2022/04/15 12:12:42;;;;;;;5.78;2.20;;;;;;;20.71;36.59;100823.86;1756758;80;21186;-57
2022/04/15 12:15:52;;;;;;;4.55;1.55;;;;;;;20.77;37.15;100819.31;1757405;80;21207;-57
2022/04/15 12:19:01;;;;;;;3.75;1.70;;;;;;;20.86;36.21;100812.87;1756942;81;21230;-57
2022/04/15 12:22:08;;;;;;;4.20;1.40;;;;;;;20.90;35.31;100802.44;1761426;80;22142;-58
2022/04/15 12:25:23;;;;;;;6.90;2.15;;;;;;;20.83;34.86;100798.90;1762838;80;21693;-56
2022/04/15 12:31:53;;;;;;;2.85;1.65;;;;;;;20.78;34.68;100797.35;1755539;81;21207;-57
2022/04/15 12:35:12;;;;;;;3.05;1.60;;;;;;;20.73;34.49;100790.23;1758015;81;21599;-57
2022/04/15 12:38:17;;;;;;;4.35;1.70;;;;;;;20.75;35.08;100797.28;1758207;81;21738;-58
2022/04/15 12:41:24;;;;;;;2.17;1.60;;;;;;;20.84;34.06;100789.45;1758207;81;21191;-57
2022/04/15 12:44:32;;;;;;;2.37;1.35;;;;;;;20.82;33.41;100786.05;1757051;81;21234;-57
2022/04/15 12:47:37;;;;;;;2.25;1.30;;;;;;;20.64;32.69;100791.62;1767841;79;21202;-56
2022/04/15 12:50:44;;;;;;;2.70;1.50;;;;;;;20.56;33.52;100791.41;1773858;80;21191;-57
2022/04/15 12:53:52;;;;;;;2.17;1.40;;;;;;;20.64;33.55;100784.67;1736651;81;21741;-58
2022/04/15 12:57:04;;;;;;;5.22;1.77;;;;;;;20.71;33.48;100784.04;1723928;82;21236;-57
2022/04/15 13:00:17;;;;;;;3.37;1.82;;;;;;;20.74;33.61;100773.30;1714875;82;21207;-57
2022/04/15 13:03:25;;;;;;;4.30;1.75;;;;;;;20.82;33.83;100770.73;1752933;80;21222;-58
2022/04/15 13:06:32;;;;;;;4.70;1.30;;;;;;;20.89;33.83;100779.02;1733890;81;21207;-59
2022/04/15 13:09:39;;;;;;;7.22;5.35;;;;;;;20.87;33.42;100771.46;1765070;80;21183;-59
2022/04/15 13:12:46;;;;;;;2.83;1.60;;;;;;;20.87;33.26;100767.28;1734275;81;21271;-58
2022/04/15 13:15:51;;;;;;;2.75;1.40;;;;;;;20.90;32.83;100759.29;1754168;81;21277;-59
2022/04/15 13:18:57;;;;;;;2.72;1.40;;;;;;;20.91;32.91;100765.19;1757164;81;21234;-59
2022/04/15 13:22:05;;;;;;;3.45;1.20;;;;;;;21.02;32.98;100757.47;1757590;80;21165;-59
2022/04/15 13:25:15;;;;;;;2.25;1.27;;;;;;;21.09;32.90;100751.81;1723398;83;21243;-59
2022/04/15 13:28:21;;;;;;;2.72;1.40;;;;;;;21.19;33.26;100750.69;1758540;81;21750;-59
2022/04/15 13:31:28;;;;;;;2.17;1.10;;;;;;;21.35;33.36;100746.70;1696405;83;21673;-59
2022/04/15 13:34:35;;;;;;;1.80;1.20;;;;;;;21.47;33.28;100744.80;1748712;81;21327;-59
2022/04/15 13:37:42;;;;;;;3.42;1.55;;;;;;;21.56;32.78;100739.75;1734017;82;21258;-59
2022/04/15 13:40:51;;;;;;;4.90;2.37;;;;;;;21.60;32.15;100742.34;1735275;82;21218;-59
2022/04/15 13:44:08;;;;;;;3.47;1.82;;;;;;;21.67;33.04;100738.39;1736178;82;21234;-59
2022/04/15 13:47:26;;;;;;;4.20;1.72;;;;;;;21.67;32.37;100729.17;1764059;80;21755;-58
2022/04/15 13:50:32;;;;;;;4.53;1.52;;;;;;;21.51;32.16;100732.64;1764903;80;21842;-58
2022/04/15 13:57:02;;;;;;;14.87;8.10;;;;;;;21.07;33.66;100727.53;1734474;82;21183;-58
2022/04/15 14:00:16;;;;;;;7.70;5.83;;;;;;;21.14;33.51;100729.13;1761267;81;21686;-59
2022/04/15 14:03:27;;;;;;;3.35;1.87;;;;;;;21.14;33.13;100727.73;1772898;79;21184;-59
2022/04/15 14:06:34;;;;;;;4.67;1.95;;;;;;;21.21;32.80;100727.11;1715563;82;22084;-60
2022/04/15 14:09:41;;;;;;;2.20;1.52;;;;;;;21.28;32.29;100723.66;1700216;82;21597;-58
2022/04/15 14:12:50;;;;;;;4.75;1.80;;;;;;;21.31;32.49;100727.36;1728144;82;21244;-58
2022/04/15 14:15:55;;;;;;;5.22;2.17;;;;;;;21.54;31.83;100719.09;1727403;82;21637;-59
2022/04/15 14:19:04;;;;;;;4.35;2.75;;;;;;;21.94;31.47;100724.87;1727310;82;21729;-59
2022/04/15 14:22:11;;;;;;;5.80;2.15;;;;;;;22.25;29.87;100725.06;1726726;83;21196;-58
2022/04/15 14:25:18;;;;;;;8.53;3.50;;;;;;;22.51;29.81;100717.02;1705272;82;21221;-58
2022/04/15 14:28:26;;;;;;;4.42;1.90;;;;;;;22.67;29.89;100725.20;1720585;83;21459;-57
2022/04/15 14:31:31;;;;;;;3.35;1.90;;;;;;;22.80;29.57;100722.14;1717299;82;21223;-59
2022/04/15 14:34:39;;;;;;;4.03;2.20;;;;;;;22.35;29.13;100723.88;1726486;82;21184;-59
2022/04/15 14:37:45;;;;;;;4.22;2.10;;;;;;;21.95;29.01;100722.38;1723776;82;21267;-58
2022/04/15 14:40:51;;;;;;;5.75;2.40;;;;;;;21.62;29.44;100715.95;1745842;81;21612;-58
2022/04/15 14:43:58;;;;;;;4.15;2.20;;;;;;;21.38;29.64;100713.34;1740149;81;21754;-59
2022/04/15 14:47:04;;;;;;;3.42;2.02;;;;;;;21.45;30.35;100709.39;1685801;85;21386;-58